sensor_id;sensor_type;location;lat;lon;timestamp;P1;durP1;ratioP1;P2;durP2;ratioP2
71042;SDS011;58696;52.134;5.500;2023-07-30T00:00:44;6.05;;;1.67;;
71042;SDS011;58696;52.134;5.500;2023-07-30T00:03:16;5.20;;;1.77;;
71042;SDS011;58696;52.134;5.500;2023-07-30T00:05:51;10.00;;;1.80;;
71042;SDS011;58696;52.134;5.500;2023-07-30T00:08:24;8.32;;;1.92;;
71042;SDS011;58696;52.134;5.500;2023-07-30T00:10:58;6.63;;;1.88;;
71042;SDS011;58696;52.134;5.500;2023-07-30T00:13:27;6.07;;;1.60;;
71042;SDS011;58696;52.134;5.500;2023-07-30T00:15:56;11.63;;;2.30;;
71042;SDS011;58696;52.134;5.500;2023-07-30T00:18:28;7.32;;;1.50;;
71042;SDS011;58696;52.134;5.500;2023-07-30T00:20:57;7.05;;;1.60;;
71042;SDS011;58696;52.134;5.500;2023-07-30T00:23:30;4.05;;;1.60;;
71042;SDS011;58696;52.134;5.500;2023-07-30T00:25:58;6.10;;;1.85;;
71042;SDS011;58696;52.134;5.500;2023-07-30T00:28:27;6.68;;;1.70;;
71042;SDS011;58696;52.134;5.500;2023-07-30T00:30:54;5.90;;;1.57;;
71042;SDS011;58696;52.134;5.500;2023-07-30T00:33:23;4.45;;;1.80;;
71042;SDS011;58696;52.134;5.500;2023-07-30T00:35:51;6.00;;;1.73;;
71042;SDS011;58696;52.134;5.500;2023-07-30T00:38:23;4.28;;;1.65;;
71042;SDS011;58696;52.134;5.500;2023-07-30T00:40:49;6.15;;;1.70;;
71042;SDS011;58696;52.134;5.500;2023-07-30T00:43:16;10.40;;;1.80;;
71042;SDS011;58696;52.134;5.500;2023-07-30T00:45:44;7.13;;;1.40;;
71042;SDS011;58696;52.134;5.500;2023-07-30T00:48:13;5.18;;;2.22;;
71042;SDS011;58696;52.134;5.500;2023-07-30T00:50:45;6.50;;;1.73;;
71042;SDS011;58696;52.134;5.500;2023-07-30T00:53:14;8.15;;;1.83;;
71042;SDS011;58696;52.134;5.500;2023-07-30T00:55:43;6.22;;;1.80;;
71042;SDS011;58696;52.134;5.500;2023-07-30T00:58:12;4.50;;;1.67;;
71042;SDS011;58696;52.134;5.500;2023-07-30T01:00:39;6.82;;;2.13;;
71042;SDS011;58696;52.134;5.500;2023-07-30T01:03:07;7.22;;;2.13;;
71042;SDS011;58696;52.134;5.500;2023-07-30T01:08:09;14.48;;;2.35;;
71042;SDS011;58696;52.134;5.500;2023-07-30T01:10:40;9.60;;;1.98;;
71042;SDS011;58696;52.134;5.500;2023-07-30T01:13:10;5.32;;;2.03;;
71042;SDS011;58696;52.134;5.500;2023-07-30T01:15:38;4.95;;;1.90;;
71042;SDS011;58696;52.134;5.500;2023-07-30T01:18:09;4.75;;;2.05;;
71042;SDS011;58696;52.134;5.500;2023-07-30T01:20:36;9.20;;;2.40;;
71042;SDS011;58696;52.134;5.500;2023-07-30T01:23:05;5.30;;;2.00;;
71042;SDS011;58696;52.134;5.500;2023-07-30T01:25:35;5.65;;;2.28;;
71042;SDS011;58696;52.134;5.500;2023-07-30T01:28:03;4.55;;;1.88;;
71042;SDS011;58696;52.134;5.500;2023-07-30T01:30:34;6.45;;;2.25;;
71042;SDS011;58696;52.134;5.500;2023-07-30T01:33:08;7.43;;;2.00;;
71042;SDS011;58696;52.134;5.500;2023-07-30T01:35:37;4.68;;;1.83;;
71042;SDS011;58696;52.134;5.500;2023-07-30T01:38:04;7.85;;;2.20;;
71042;SDS011;58696;52.134;5.500;2023-07-30T01:40:35;6.68;;;1.90;;
71042;SDS011;58696;52.134;5.500;2023-07-30T01:43:04;7.03;;;2.55;;
71042;SDS011;58696;52.134;5.500;2023-07-30T01:45:33;11.07;;;2.30;;
71042;SDS011;58696;52.134;5.500;2023-07-30T01:48:02;15.60;;;2.45;;
71042;SDS011;58696;52.134;5.500;2023-07-30T01:50:29;9.60;;;2.22;;
71042;SDS011;58696;52.134;5.500;2023-07-30T01:52:58;5.57;;;2.53;;
71042;SDS011;58696;52.134;5.500;2023-07-30T01:55:29;8.50;;;2.10;;
71042;SDS011;58696;52.134;5.500;2023-07-30T01:57:55;6.72;;;1.70;;
71042;SDS011;58696;52.134;5.500;2023-07-30T02:00:24;12.00;;;2.10;;
71042;SDS011;58696;52.134;5.500;2023-07-30T02:02:56;9.77;;;2.40;;
71042;SDS011;58696;52.134;5.500;2023-07-30T02:05:25;5.93;;;2.30;;
71042;SDS011;58696;52.134;5.500;2023-07-30T02:07:52;7.43;;;2.05;;
71042;SDS011;58696;52.134;5.500;2023-07-30T02:10:18;9.43;;;2.35;;
71042;SDS011;58696;52.134;5.500;2023-07-30T02:12:50;10.68;;;2.92;;
71042;SDS011;58696;52.134;5.500;2023-07-30T02:15:16;5.28;;;2.15;;
71042;SDS011;58696;52.134;5.500;2023-07-30T02:17:45;7.25;;;2.13;;
71042;SDS011;58696;52.134;5.500;2023-07-30T02:20:15;12.20;;;2.55;;
71042;SDS011;58696;52.134;5.500;2023-07-30T02:22:44;12.35;;;2.58;;
71042;SDS011;58696;52.134;5.500;2023-07-30T02:25:10;7.28;;;2.17;;
71042;SDS011;58696;52.134;5.500;2023-07-30T02:27:44;8.43;;;2.85;;
71042;SDS011;58696;52.134;5.500;2023-07-30T02:30:14;10.05;;;2.22;;
71042;SDS011;58696;52.134;5.500;2023-07-30T02:32:41;7.57;;;2.45;;
71042;SDS011;58696;52.134;5.500;2023-07-30T02:35:08;10.33;;;2.30;;
71042;SDS011;58696;52.134;5.500;2023-07-30T02:37:34;10.32;;;2.60;;
71042;SDS011;58696;52.134;5.500;2023-07-30T02:40:01;8.18;;;2.47;;
71042;SDS011;58696;52.134;5.500;2023-07-30T02:42:30;12.85;;;2.72;;
71042;SDS011;58696;52.134;5.500;2023-07-30T02:44:57;8.70;;;2.30;;
71042;SDS011;58696;52.134;5.500;2023-07-30T02:47:26;8.27;;;2.78;;
71042;SDS011;58696;52.134;5.500;2023-07-30T02:49:57;8.57;;;2.60;;
71042;SDS011;58696;52.134;5.500;2023-07-30T02:52:23;11.07;;;2.75;;
71042;SDS011;58696;52.134;5.500;2023-07-30T02:54:52;8.88;;;2.35;;
71042;SDS011;58696;52.134;5.500;2023-07-30T02:57:21;10.40;;;2.88;;
71042;SDS011;58696;52.134;5.500;2023-07-30T02:59:51;14.35;;;2.97;;
71042;SDS011;58696;52.134;5.500;2023-07-30T03:02:25;10.50;;;2.70;;
71042;SDS011;58696;52.134;5.500;2023-07-30T03:04:54;14.55;;;2.88;;
71042;SDS011;58696;52.134;5.500;2023-07-30T03:07:24;9.93;;;2.70;;
71042;SDS011;58696;52.134;5.500;2023-07-30T03:09:52;8.45;;;2.65;;
71042;SDS011;58696;52.134;5.500;2023-07-30T03:12:18;6.30;;;2.60;;
71042;SDS011;58696;52.134;5.500;2023-07-30T03:14:45;13.45;;;2.65;;
71042;SDS011;58696;52.134;5.500;2023-07-30T03:17:14;13.57;;;2.97;;
71042;SDS011;58696;52.134;5.500;2023-07-30T03:19:43;10.57;;;2.45;;
71042;SDS011;58696;52.134;5.500;2023-07-30T03:22:13;9.07;;;2.63;;
71042;SDS011;58696;52.134;5.500;2023-07-30T03:24:42;11.63;;;2.63;;
71042;SDS011;58696;52.134;5.500;2023-07-30T03:27:15;13.95;;;3.08;;
71042;SDS011;58696;52.134;5.500;2023-07-30T03:29:45;7.68;;;2.53;;
71042;SDS011;58696;52.134;5.500;2023-07-30T03:32:15;10.40;;;3.03;;
71042;SDS011;58696;52.134;5.500;2023-07-30T03:34:44;11.05;;;2.95;;
71042;SDS011;58696;52.134;5.500;2023-07-30T03:37:15;8.52;;;2.40;;
71042;SDS011;58696;52.134;5.500;2023-07-30T03:39:44;12.40;;;3.05;;
71042;SDS011;58696;52.134;5.500;2023-07-30T03:42:11;14.23;;;2.80;;
71042;SDS011;58696;52.134;5.500;2023-07-30T03:44:42;15.63;;;2.78;;
71042;SDS011;58696;52.134;5.500;2023-07-30T03:47:11;12.98;;;3.35;;
71042;SDS011;58696;52.134;5.500;2023-07-30T03:49:40;14.35;;;3.30;;
71042;SDS011;58696;52.134;5.500;2023-07-30T03:52:07;10.25;;;2.60;;
71042;SDS011;58696;52.134;5.500;2023-07-30T03:54:40;11.20;;;3.30;;
71042;SDS011;58696;52.134;5.500;2023-07-30T03:57:10;8.25;;;2.95;;
71042;SDS011;58696;52.134;5.500;2023-07-30T03:59:41;14.32;;;3.47;;
71042;SDS011;58696;52.134;5.500;2023-07-30T04:02:07;10.55;;;3.00;;
71042;SDS011;58696;52.134;5.500;2023-07-30T04:04:42;15.80;;;3.72;;
71042;SDS011;58696;52.134;5.500;2023-07-30T04:07:10;11.55;;;3.25;;
71042;SDS011;58696;52.134;5.500;2023-07-30T04:09:39;19.30;;;4.32;;
71042;SDS011;58696;52.134;5.500;2023-07-30T04:12:06;15.98;;;4.25;;
71042;SDS011;58696;52.134;5.500;2023-07-30T04:14:40;11.98;;;3.80;;
71042;SDS011;58696;52.134;5.500;2023-07-30T04:17:13;21.85;;;3.95;;
71042;SDS011;58696;52.134;5.500;2023-07-30T04:19:39;15.40;;;3.45;;
71042;SDS011;58696;52.134;5.500;2023-07-30T04:22:09;11.23;;;3.58;;
71042;SDS011;58696;52.134;5.500;2023-07-30T04:24:37;14.38;;;3.67;;
71042;SDS011;58696;52.134;5.500;2023-07-30T04:27:08;12.18;;;4.03;;
71042;SDS011;58696;52.134;5.500;2023-07-30T04:29:39;11.25;;;3.80;;
71042;SDS011;58696;52.134;5.500;2023-07-30T04:32:08;15.52;;;3.60;;
71042;SDS011;58696;52.134;5.500;2023-07-30T04:34:40;21.05;;;4.65;;
71042;SDS011;58696;52.134;5.500;2023-07-30T04:37:09;14.05;;;3.88;;
71042;SDS011;58696;52.134;5.500;2023-07-30T04:39:36;15.40;;;4.27;;
71042;SDS011;58696;52.134;5.500;2023-07-30T04:42:05;16.30;;;4.15;;
71042;SDS011;58696;52.134;5.500;2023-07-30T04:44:34;20.52;;;4.28;;
71042;SDS011;58696;52.134;5.500;2023-07-30T04:47:00;23.60;;;3.97;;
71042;SDS011;58696;52.134;5.500;2023-07-30T04:49:32;20.77;;;4.82;;
71042;SDS011;58696;52.134;5.500;2023-07-30T04:51:59;12.43;;;4.25;;
71042;SDS011;58696;52.134;5.500;2023-07-30T04:54:25;27.35;;;4.47;;
71042;SDS011;58696;52.134;5.500;2023-07-30T04:56:52;17.35;;;4.70;;
71042;SDS011;58696;52.134;5.500;2023-07-30T04:59:21;14.88;;;4.43;;
71042;SDS011;58696;52.134;5.500;2023-07-30T05:01:47;18.92;;;4.85;;
71042;SDS011;58696;52.134;5.500;2023-07-30T05:04:16;16.50;;;4.25;;
71042;SDS011;58696;52.134;5.500;2023-07-30T05:06:42;15.93;;;4.20;;
71042;SDS011;58696;52.134;5.500;2023-07-30T05:09:09;19.15;;;4.80;;
71042;SDS011;58696;52.134;5.500;2023-07-30T05:11:40;20.70;;;5.38;;
71042;SDS011;58696;52.134;5.500;2023-07-30T05:14:10;20.42;;;4.93;;
71042;SDS011;58696;52.134;5.500;2023-07-30T05:16:38;24.17;;;5.60;;
71042;SDS011;58696;52.134;5.500;2023-07-30T05:19:05;26.55;;;5.22;;
71042;SDS011;58696;52.134;5.500;2023-07-30T05:21:35;24.52;;;5.15;;
71042;SDS011;58696;52.134;5.500;2023-07-30T05:24:03;21.02;;;5.18;;
71042;SDS011;58696;52.134;5.500;2023-07-30T05:28:59;20.88;;;5.20;;
71042;SDS011;58696;52.134;5.500;2023-07-30T05:31:26;19.88;;;4.95;;
71042;SDS011;58696;52.134;5.500;2023-07-30T05:33:57;27.73;;;6.38;;
71042;SDS011;58696;52.134;5.500;2023-07-30T05:36:24;31.55;;;6.10;;
71042;SDS011;58696;52.134;5.500;2023-07-30T05:38:55;23.92;;;5.70;;
71042;SDS011;58696;52.134;5.500;2023-07-30T05:41:24;21.80;;;5.32;;
71042;SDS011;58696;52.134;5.500;2023-07-30T05:43:52;20.13;;;5.18;;
71042;SDS011;58696;52.134;5.500;2023-07-30T05:46:19;17.48;;;5.68;;
71042;SDS011;58696;52.134;5.500;2023-07-30T05:48:51;22.75;;;5.55;;
71042;SDS011;58696;52.134;5.500;2023-07-30T05:51:23;19.10;;;4.90;;
71042;SDS011;58696;52.134;5.500;2023-07-30T05:53:49;16.52;;;5.57;;
71042;SDS011;58696;52.134;5.500;2023-07-30T05:56:16;23.67;;;5.50;;
71042;SDS011;58696;52.134;5.500;2023-07-30T05:58:45;16.95;;;5.50;;
71042;SDS011;58696;52.134;5.500;2023-07-30T06:01:16;26.70;;;5.20;;
71042;SDS011;58696;52.134;5.500;2023-07-30T06:03:45;21.95;;;5.35;;
71042;SDS011;58696;52.134;5.500;2023-07-30T06:06:16;22.25;;;5.70;;
71042;SDS011;58696;52.134;5.500;2023-07-30T06:08:43;21.65;;;5.85;;
71042;SDS011;58696;52.134;5.500;2023-07-30T06:11:11;16.08;;;4.60;;
71042;SDS011;58696;52.134;5.500;2023-07-30T06:13:38;19.90;;;5.85;;
71042;SDS011;58696;52.134;5.500;2023-07-30T06:16:06;21.35;;;5.45;;
71042;SDS011;58696;52.134;5.500;2023-07-30T06:18:35;17.77;;;5.55;;
71042;SDS011;58696;52.134;5.500;2023-07-30T06:21:02;16.58;;;5.38;;
71042;SDS011;58696;52.134;5.500;2023-07-30T06:23:31;20.60;;;6.03;;
71042;SDS011;58696;52.134;5.500;2023-07-30T06:26:02;20.48;;;5.00;;
71042;SDS011;58696;52.134;5.500;2023-07-30T06:28:29;14.07;;;5.75;;
71042;SDS011;58696;52.134;5.500;2023-07-30T06:30:57;21.27;;;5.82;;
71042;SDS011;58696;52.134;5.500;2023-07-30T06:33:28;18.65;;;6.07;;
71042;SDS011;58696;52.134;5.500;2023-07-30T06:35:58;20.92;;;5.78;;
71042;SDS011;58696;52.134;5.500;2023-07-30T06:38:26;27.98;;;6.55;;
71042;SDS011;58696;52.134;5.500;2023-07-30T06:40:53;19.95;;;6.00;;
71042;SDS011;58696;52.134;5.500;2023-07-30T06:43:19;20.20;;;4.95;;
71042;SDS011;58696;52.134;5.500;2023-07-30T06:45:46;27.60;;;6.32;;
71042;SDS011;58696;52.134;5.500;2023-07-30T06:48:17;23.10;;;5.88;;
71042;SDS011;58696;52.134;5.500;2023-07-30T06:50:48;28.02;;;5.63;;
71042;SDS011;58696;52.134;5.500;2023-07-30T06:53:14;26.20;;;5.75;;
71042;SDS011;58696;52.134;5.500;2023-07-30T06:55:46;21.73;;;5.68;;
71042;SDS011;58696;52.134;5.500;2023-07-30T06:58:12;23.00;;;5.45;;
71042;SDS011;58696;52.134;5.500;2023-07-30T07:00:40;22.45;;;5.72;;
71042;SDS011;58696;52.134;5.500;2023-07-30T07:03:09;21.60;;;6.57;;
71042;SDS011;58696;52.134;5.500;2023-07-30T07:05:38;19.73;;;5.53;;
71042;SDS011;58696;52.134;5.500;2023-07-30T07:08:10;17.27;;;5.10;;
71042;SDS011;58696;52.134;5.500;2023-07-30T07:10:37;15.40;;;4.75;;
71042;SDS011;58696;52.134;5.500;2023-07-30T07:13:03;19.73;;;5.43;;
71042;SDS011;58696;52.134;5.500;2023-07-30T07:15:32;17.95;;;4.45;;
71042;SDS011;58696;52.134;5.500;2023-07-30T07:18:03;20.27;;;4.85;;
71042;SDS011;58696;52.134;5.500;2023-07-30T07:20:32;17.33;;;4.80;;
71042;SDS011;58696;52.134;5.500;2023-07-30T07:22:59;15.68;;;4.88;;
71042;SDS011;58696;52.134;5.500;2023-07-30T07:25:28;24.55;;;5.15;;
71042;SDS011;58696;52.134;5.500;2023-07-30T07:27:57;22.17;;;5.25;;
71042;SDS011;58696;52.134;5.500;2023-07-30T07:30:26;19.55;;;4.63;;
71042;SDS011;58696;52.134;5.500;2023-07-30T07:32:55;20.52;;;4.93;;
71042;SDS011;58696;52.134;5.500;2023-07-30T07:35:22;15.25;;;4.32;;
71042;SDS011;58696;52.134;5.500;2023-07-30T07:37:49;19.90;;;4.75;;
71042;SDS011;58696;52.134;5.500;2023-07-30T07:40:16;24.08;;;4.60;;
71042;SDS011;58696;52.134;5.500;2023-07-30T07:42:47;11.32;;;4.43;;
71042;SDS011;58696;52.134;5.500;2023-07-30T07:45:19;19.98;;;4.30;;
71042;SDS011;58696;52.134;5.500;2023-07-30T07:47:46;14.48;;;4.32;;
71042;SDS011;58696;52.134;5.500;2023-07-30T07:50:14;19.73;;;4.30;;
71042;SDS011;58696;52.134;5.500;2023-07-30T07:52:42;16.98;;;4.20;;
71042;SDS011;58696;52.134;5.500;2023-07-30T07:55:11;12.93;;;3.58;;
71042;SDS011;58696;52.134;5.500;2023-07-30T07:57:40;13.93;;;3.95;;
71042;SDS011;58696;52.134;5.500;2023-07-30T08:00:06;18.25;;;4.65;;
71042;SDS011;58696;52.134;5.500;2023-07-30T08:02:33;18.63;;;4.10;;
71042;SDS011;58696;52.134;5.500;2023-07-30T08:05:07;17.00;;;3.45;;
71042;SDS011;58696;52.134;5.500;2023-07-30T08:07:37;14.25;;;3.33;;
71042;SDS011;58696;52.134;5.500;2023-07-30T08:10:03;24.05;;;4.32;;
71042;SDS011;58696;52.134;5.500;2023-07-30T08:12:32;16.20;;;3.47;;
71042;SDS011;58696;52.134;5.500;2023-07-30T08:14:59;18.60;;;4.32;;
71042;SDS011;58696;52.134;5.500;2023-07-30T08:17:28;18.48;;;4.43;;
71042;SDS011;58696;52.134;5.500;2023-07-30T08:19:55;14.75;;;4.10;;
71042;SDS011;58696;52.134;5.500;2023-07-30T08:22:22;21.92;;;3.97;;
71042;SDS011;58696;52.134;5.500;2023-07-30T08:24:48;12.50;;;3.00;;
71042;SDS011;58696;52.134;5.500;2023-07-30T08:27:18;19.30;;;4.07;;
71042;SDS011;58696;52.134;5.500;2023-07-30T08:29:58;14.18;;;3.95;;
71042;SDS011;58696;52.134;5.500;2023-07-30T08:32:25;16.83;;;3.58;;
71042;SDS011;58696;52.134;5.500;2023-07-30T08:34:56;15.57;;;3.33;;
71042;SDS011;58696;52.134;5.500;2023-07-30T08:37:30;19.25;;;4.00;;
71042;SDS011;58696;52.134;5.500;2023-07-30T08:39:59;11.20;;;3.10;;
71042;SDS011;58696;52.134;5.500;2023-07-30T08:42:25;11.13;;;2.80;;
71042;SDS011;58696;52.134;5.500;2023-07-30T08:44:52;10.23;;;3.07;;
71042;SDS011;58696;52.134;5.500;2023-07-30T08:47:21;11.38;;;2.95;;
71042;SDS011;58696;52.134;5.500;2023-07-30T08:49:50;13.45;;;2.60;;
71042;SDS011;58696;52.134;5.500;2023-07-30T08:52:21;11.73;;;2.80;;
71042;SDS011;58696;52.134;5.500;2023-07-30T08:54:50;16.70;;;3.63;;
71042;SDS011;58696;52.134;5.500;2023-07-30T08:57:21;8.48;;;2.45;;
71042;SDS011;58696;52.134;5.500;2023-07-30T08:59:52;11.80;;;2.55;;
71042;SDS011;58696;52.134;5.500;2023-07-30T09:02:26;11.98;;;2.60;;
71042;SDS011;58696;52.134;5.500;2023-07-30T09:05:02;13.10;;;2.63;;
71042;SDS011;58696;52.134;5.500;2023-07-30T09:07:32;11.05;;;2.70;;
71042;SDS011;58696;52.134;5.500;2023-07-30T09:10:03;10.77;;;2.83;;
71042;SDS011;58696;52.134;5.500;2023-07-30T09:12:30;16.08;;;3.08;;
71042;SDS011;58696;52.134;5.500;2023-07-30T09:15:04;14.93;;;3.03;;
71042;SDS011;58696;52.134;5.500;2023-07-30T09:17:34;11.38;;;2.58;;
71042;SDS011;58696;52.134;5.500;2023-07-30T09:20:04;13.33;;;3.07;;
71042;SDS011;58696;52.134;5.500;2023-07-30T09:22:34;9.10;;;2.72;;
71042;SDS011;58696;52.134;5.500;2023-07-30T09:25:10;13.38;;;3.42;;
71042;SDS011;58696;52.134;5.500;2023-07-30T09:27:37;13.18;;;2.95;;
71042;SDS011;58696;52.134;5.500;2023-07-30T09:30:08;15.27;;;2.85;;
71042;SDS011;58696;52.134;5.500;2023-07-30T09:32:40;11.75;;;2.95;;
71042;SDS011;58696;52.134;5.500;2023-07-30T09:35:09;10.45;;;2.30;;
71042;SDS011;58696;52.134;5.500;2023-07-30T09:37:40;14.85;;;2.97;;
71042;SDS011;58696;52.134;5.500;2023-07-30T09:40:10;14.70;;;3.28;;
71042;SDS011;58696;52.134;5.500;2023-07-30T09:42:50;13.45;;;2.85;;
71042;SDS011;58696;52.134;5.500;2023-07-30T09:45:20;9.75;;;3.08;;
71042;SDS011;58696;52.134;5.500;2023-07-30T09:47:52;7.43;;;2.20;;
71042;SDS011;58696;52.134;5.500;2023-07-30T09:50:21;6.80;;;2.20;;
71042;SDS011;58696;52.134;5.500;2023-07-30T09:52:50;13.43;;;2.80;;
71042;SDS011;58696;52.134;5.500;2023-07-30T09:55:17;13.27;;;3.17;;
71042;SDS011;58696;52.134;5.500;2023-07-30T09:57:45;9.10;;;2.45;;
71042;SDS011;58696;52.134;5.500;2023-07-30T10:00:16;12.55;;;2.88;;
71042;SDS011;58696;52.134;5.500;2023-07-30T10:02:45;13.93;;;3.08;;
71042;SDS011;58696;52.134;5.500;2023-07-30T10:05:16;8.85;;;2.90;;
71042;SDS011;58696;52.134;5.500;2023-07-30T10:07:49;9.52;;;3.22;;
71042;SDS011;58696;52.134;5.500;2023-07-30T10:10:25;10.30;;;2.30;;
71042;SDS011;58696;52.134;5.500;2023-07-30T10:12:55;8.23;;;1.92;;
71042;SDS011;58696;52.134;5.500;2023-07-30T10:15:31;8.38;;;2.15;;
71042;SDS011;58696;52.134;5.500;2023-07-30T10:18:05;6.35;;;2.25;;
71042;SDS011;58696;52.134;5.500;2023-07-30T10:20:37;6.68;;;1.90;;
71042;SDS011;58696;52.134;5.500;2023-07-30T10:23:07;11.05;;;1.90;;
71042;SDS011;58696;52.134;5.500;2023-07-30T10:25:52;10.50;;;1.85;;
71042;SDS011;58696;52.134;5.500;2023-07-30T10:28:32;4.80;;;1.55;;
71042;SDS011;58696;52.134;5.500;2023-07-30T10:31:05;4.63;;;1.65;;
71042;SDS011;58696;52.134;5.500;2023-07-30T10:33:45;4.93;;;1.52;;
71042;SDS011;58696;52.134;5.500;2023-07-30T10:36:12;5.53;;;1.80;;
71042;SDS011;58696;52.134;5.500;2023-07-30T10:38:41;4.82;;;1.40;;
71042;SDS011;58696;52.134;5.500;2023-07-30T10:41:14;6.82;;;1.75;;
71042;SDS011;58696;52.134;5.500;2023-07-30T10:43:47;6.72;;;1.60;;
71042;SDS011;58696;52.134;5.500;2023-07-30T10:46:19;4.32;;;1.52;;
71042;SDS011;58696;52.134;5.500;2023-07-30T10:48:47;5.10;;;1.73;;
71042;SDS011;58696;52.134;5.500;2023-07-30T10:51:15;8.73;;;2.00;;
71042;SDS011;58696;52.134;5.500;2023-07-30T10:53:43;8.65;;;1.73;;
71042;SDS011;58696;52.134;5.500;2023-07-30T10:56:18;4.35;;;1.40;;
71042;SDS011;58696;52.134;5.500;2023-07-30T10:58:51;6.90;;;1.88;;
71042;SDS011;58696;52.134;5.500;2023-07-30T11:01:23;5.35;;;1.33;;
71042;SDS011;58696;52.134;5.500;2023-07-30T11:03:53;6.18;;;1.58;;
71042;SDS011;58696;52.134;5.500;2023-07-30T11:06:23;5.10;;;1.67;;
71042;SDS011;58696;52.134;5.500;2023-07-30T11:08:55;6.22;;;1.40;;
71042;SDS011;58696;52.134;5.500;2023-07-30T11:11:21;6.32;;;1.55;;
71042;SDS011;58696;52.134;5.500;2023-07-30T11:13:52;6.25;;;1.30;;
71042;SDS011;58696;52.134;5.500;2023-07-30T11:16:24;5.72;;;1.40;;
71042;SDS011;58696;52.134;5.500;2023-07-30T11:18:58;8.13;;;1.38;;
71042;SDS011;58696;52.134;5.500;2023-07-30T11:21:26;9.30;;;1.80;;
71042;SDS011;58696;52.134;5.500;2023-07-30T11:23:59;6.13;;;1.58;;
71042;SDS011;58696;52.134;5.500;2023-07-30T11:26:28;4.45;;;1.27;;
71042;SDS011;58696;52.134;5.500;2023-07-30T11:28:54;10.95;;;1.42;;
71042;SDS011;58696;52.134;5.500;2023-07-30T11:31:23;5.53;;;1.42;;
71042;SDS011;58696;52.134;5.500;2023-07-30T11:33:53;5.10;;;1.40;;
71042;SDS011;58696;52.134;5.500;2023-07-30T11:36:22;7.80;;;1.70;;
71042;SDS011;58696;52.134;5.500;2023-07-30T11:38:52;3.55;;;1.48;;
71042;SDS011;58696;52.134;5.500;2023-07-30T11:41:21;3.90;;;1.10;;
71042;SDS011;58696;52.134;5.500;2023-07-30T11:43:55;3.30;;;1.20;;
71042;SDS011;58696;52.134;5.500;2023-07-30T11:46:22;7.65;;;1.67;;
71042;SDS011;58696;52.134;5.500;2023-07-30T11:48:50;5.32;;;2.45;;
71042;SDS011;58696;52.134;5.500;2023-07-30T11:51:36;4.32;;;1.63;;
71042;SDS011;58696;52.134;5.500;2023-07-30T11:54:17;6.68;;;1.60;;
71042;SDS011;58696;52.134;5.500;2023-07-30T11:56:45;5.68;;;1.33;;
71042;SDS011;58696;52.134;5.500;2023-07-30T11:59:12;6.43;;;1.67;;
71042;SDS011;58696;52.134;5.500;2023-07-30T12:01:39;4.65;;;1.50;;
71042;SDS011;58696;52.134;5.500;2023-07-30T12:04:09;5.45;;;1.30;;
71042;SDS011;58696;52.134;5.500;2023-07-30T12:14:21;5.65;;;1.40;;
71042;SDS011;58696;52.134;5.500;2023-07-30T12:16:52;6.13;;;1.40;;
71042;SDS011;58696;52.134;5.500;2023-07-30T12:19:21;5.13;;;1.77;;
71042;SDS011;58696;52.134;5.500;2023-07-30T12:21:50;5.75;;;1.58;;
71042;SDS011;58696;52.134;5.500;2023-07-30T12:24:18;3.83;;;1.63;;
71042;SDS011;58696;52.134;5.500;2023-07-30T12:26:45;7.73;;;1.27;;
71042;SDS011;58696;52.134;5.500;2023-07-30T12:31:43;2.63;;;1.08;;
71042;SDS011;58696;52.134;5.500;2023-07-30T12:34:12;3.28;;;1.25;;
71042;SDS011;58696;52.134;5.500;2023-07-30T12:36:43;4.13;;;1.75;;
71042;SDS011;58696;52.134;5.500;2023-07-30T12:39:15;7.22;;;1.23;;
71042;SDS011;58696;52.134;5.500;2023-07-30T12:41:41;3.38;;;1.20;;
71042;SDS011;58696;52.134;5.500;2023-07-30T12:44:08;9.20;;;1.60;;
71042;SDS011;58696;52.134;5.500;2023-07-30T12:46:36;2.38;;;0.95;;
71042;SDS011;58696;52.134;5.500;2023-07-30T12:49:02;3.58;;;0.95;;
71042;SDS011;58696;52.134;5.500;2023-07-30T12:51:31;3.47;;;1.42;;
71042;SDS011;58696;52.134;5.500;2023-07-30T12:53:58;2.83;;;0.90;;
71042;SDS011;58696;52.134;5.500;2023-07-30T12:56:27;8.60;;;1.00;;
71042;SDS011;58696;52.134;5.500;2023-07-30T13:01:34;3.65;;;1.13;;
71042;SDS011;58696;52.134;5.500;2023-07-30T13:04:02;8.82;;;1.10;;
71042;SDS011;58696;52.134;5.500;2023-07-30T13:06:28;2.03;;;1.00;;
71042;SDS011;58696;52.134;5.500;2023-07-30T13:08:58;4.68;;;0.93;;
71042;SDS011;58696;52.134;5.500;2023-07-30T13:11:27;6.20;;;1.17;;
71042;SDS011;58696;52.134;5.500;2023-07-30T13:13:59;4.75;;;1.35;;
71042;SDS011;58696;52.134;5.500;2023-07-30T13:16:29;7.32;;;1.08;;
71042;SDS011;58696;52.134;5.500;2023-07-30T13:18:58;3.00;;;0.82;;
71042;SDS011;58696;52.134;5.500;2023-07-30T13:21:30;2.90;;;0.93;;
71042;SDS011;58696;52.134;5.500;2023-07-30T13:23:57;2.20;;;0.60;;
71042;SDS011;58696;52.134;5.500;2023-07-30T13:26:23;4.37;;;1.33;;
71042;SDS011;58696;52.134;5.500;2023-07-30T13:28:50;4.10;;;1.08;;
71042;SDS011;58696;52.134;5.500;2023-07-30T13:31:18;4.32;;;0.95;;
71042;SDS011;58696;52.134;5.500;2023-07-30T13:33:45;4.55;;;1.20;;
71042;SDS011;58696;52.134;5.500;2023-07-30T13:36:14;8.57;;;1.35;;
71042;SDS011;58696;52.134;5.500;2023-07-30T13:38:43;2.90;;;1.23;;
71042;SDS011;58696;52.134;5.500;2023-07-30T13:41:13;1.52;;;0.85;;
71042;SDS011;58696;52.134;5.500;2023-07-30T13:43:42;3.40;;;0.90;;
71042;SDS011;58696;52.134;5.500;2023-07-30T13:46:08;4.80;;;1.10;;
71042;SDS011;58696;52.134;5.500;2023-07-30T13:48:37;3.83;;;1.25;;
71042;SDS011;58696;52.134;5.500;2023-07-30T13:51:04;4.53;;;1.10;;
71042;SDS011;58696;52.134;5.500;2023-07-30T13:53:32;5.95;;;1.35;;
71042;SDS011;58696;52.134;5.500;2023-07-30T13:56:05;3.85;;;0.82;;
71042;SDS011;58696;52.134;5.500;2023-07-30T13:58:33;5.32;;;1.15;;
71042;SDS011;58696;52.134;5.500;2023-07-30T14:01:06;6.38;;;0.90;;
71042;SDS011;58696;52.134;5.500;2023-07-30T14:03:37;2.75;;;1.33;;
71042;SDS011;58696;52.134;5.500;2023-07-30T14:06:03;7.20;;;1.98;;
71042;SDS011;58696;52.134;5.500;2023-07-30T14:08:30;2.37;;;0.97;;
71042;SDS011;58696;52.134;5.500;2023-07-30T14:10:57;4.53;;;0.80;;
71042;SDS011;58696;52.134;5.500;2023-07-30T14:13:25;6.60;;;1.20;;
71042;SDS011;58696;52.134;5.500;2023-07-30T14:15:54;4.13;;;1.10;;
71042;SDS011;58696;52.134;5.500;2023-07-30T14:18:21;6.30;;;1.58;;
71042;SDS011;58696;52.134;5.500;2023-07-30T14:20:54;11.95;;;1.38;;
71042;SDS011;58696;52.134;5.500;2023-07-30T14:23:20;3.63;;;0.80;;
71042;SDS011;58696;52.134;5.500;2023-07-30T14:25:49;4.93;;;1.27;;
71042;SDS011;58696;52.134;5.500;2023-07-30T14:28:21;4.07;;;1.77;;
71042;SDS011;58696;52.134;5.500;2023-07-30T14:30:50;6.75;;;1.38;;
71042;SDS011;58696;52.134;5.500;2023-07-30T14:33:17;2.73;;;1.10;;
71042;SDS011;58696;52.134;5.500;2023-07-30T14:35:46;5.63;;;1.23;;
71042;SDS011;58696;52.134;5.500;2023-07-30T14:38:16;10.40;;;1.95;;
71042;SDS011;58696;52.134;5.500;2023-07-30T14:40:43;5.07;;;1.50;;
71042;SDS011;58696;52.134;5.500;2023-07-30T14:43:15;5.00;;;1.48;;
71042;SDS011;58696;52.134;5.500;2023-07-30T14:45:42;4.35;;;1.60;;
71042;SDS011;58696;52.134;5.500;2023-07-30T14:48:11;8.48;;;1.65;;
71042;SDS011;58696;52.134;5.500;2023-07-30T14:50:38;6.53;;;1.48;;
71042;SDS011;58696;52.134;5.500;2023-07-30T14:53:07;6.03;;;1.40;;
71042;SDS011;58696;52.134;5.500;2023-07-30T14:55:37;8.13;;;1.30;;
71042;SDS011;58696;52.134;5.500;2023-07-30T14:58:05;4.00;;;1.20;;
71042;SDS011;58696;52.134;5.500;2023-07-30T15:00:32;11.07;;;1.70;;
71042;SDS011;58696;52.134;5.500;2023-07-30T15:02:59;8.68;;;1.60;;
71042;SDS011;58696;52.134;5.500;2023-07-30T15:05:27;6.03;;;1.83;;
71042;SDS011;58696;52.134;5.500;2023-07-30T15:07:54;6.80;;;1.70;;
71042;SDS011;58696;52.134;5.500;2023-07-30T15:10:21;9.35;;;1.52;;